sensor_id;sensor_type;location;lat;lon;timestamp;temperature;humidity
57829;DHT22;43657;52.698;6.314;2022-07-29T00:00:41;15.00;99.40
57829;DHT22;43657;52.698;6.314;2022-07-29T00:03:13;15.00;99.60
57829;DHT22;43657;52.698;6.314;2022-07-29T00:05:40;15.00;99.60
57829;DHT22;43657;52.698;6.314;2022-07-29T00:08:06;15.00;99.80
57829;DHT22;43657;52.698;6.314;2022-07-29T00:10:32;15.00;99.80
57829;DHT22;43657;52.698;6.314;2022-07-29T00:12:58;14.90;99.90
57829;DHT22;43657;52.698;6.314;2022-07-29T00:15:23;15.00;99.90
57829;DHT22;43657;52.698;6.314;2022-07-29T00:17:49;15.00;99.90
57829;DHT22;43657;52.698;6.314;2022-07-29T00:20:14;15.00;99.90
57829;DHT22;43657;52.698;6.314;2022-07-29T00:22:40;15.00;99.90
57829;DHT22;43657;52.698;6.314;2022-07-29T00:25:06;15.00;99.90
57829;DHT22;43657;52.698;6.314;2022-07-29T00:27:33;14.90;99.90
57829;DHT22;43657;52.698;6.314;2022-07-29T00:30:00;14.90;99.80
57829;DHT22;43657;52.698;6.314;2022-07-29T00:32:26;14.90;99.70
57829;DHT22;43657;52.698;6.314;2022-07-29T00:34:51;14.90;99.90
57829;DHT22;43657;52.698;6.314;2022-07-29T00:37:35;14.90;99.90
57829;DHT22;43657;52.698;6.314;2022-07-29T00:40:01;14.90;99.90
57829;DHT22;43657;52.698;6.314;2022-07-29T00:42:26;14.90;99.90
57829;DHT22;43657;52.698;6.314;2022-07-29T00:44:52;14.80;99.90
57829;DHT22;43657;52.698;6.314;2022-07-29T00:47:18;14.80;99.90
57829;DHT22;43657;52.698;6.314;2022-07-29T00:49:44;14.80;99.90
57829;DHT22;43657;52.698;6.314;2022-07-29T00:52:10;14.80;99.90
57829;DHT22;43657;52.698;6.314;2022-07-29T00:54:38;14.80;99.90
57829;DHT22;43657;52.698;6.314;2022-07-29T00:57:07;14.80;99.90
57829;DHT22;43657;52.698;6.314;2022-07-29T00:59:33;14.90;99.90
57829;DHT22;43657;52.698;6.314;2022-07-29T01:01:59;14.80;99.90
57829;DHT22;43657;52.698;6.314;2022-07-29T01:04:25;14.90;99.90
57829;DHT22;43657;52.698;6.314;2022-07-29T01:06:51;14.80;99.90
57829;DHT22;43657;52.698;6.314;2022-07-29T01:09:18;14.80;99.90
57829;DHT22;43657;52.698;6.314;2022-07-29T01:11:44;14.80;99.90
57829;DHT22;43657;52.698;6.314;2022-07-29T01:14:11;14.80;99.90
57829;DHT22;43657;52.698;6.314;2022-07-29T01:16:45;14.80;99.90
57829;DHT22;43657;52.698;6.314;2022-07-29T01:19:39;14.80;99.90
57829;DHT22;43657;52.698;6.314;2022-07-29T01:30:29;14.70;99.90
57829;DHT22;43657;52.698;6.314;2022-07-29T01:33:00;14.80;99.90
57829;DHT22;43657;52.698;6.314;2022-07-29T01:35:33;14.70;99.90
57829;DHT22;43657;52.698;6.314;2022-07-29T01:38:11;14.70;99.90
57829;DHT22;43657;52.698;6.314;2022-07-29T01:40:51;14.80;99.90
57829;DHT22;43657;52.698;6.314;2022-07-29T01:43:34;14.70;99.90
57829;DHT22;43657;52.698;6.314;2022-07-29T01:46:05;14.70;99.90
57829;DHT22;43657;52.698;6.314;2022-07-29T01:48:57;14.80;99.90
57829;DHT22;43657;52.698;6.314;2022-07-29T01:51:25;14.70;99.90
57829;DHT22;43657;52.698;6.314;2022-07-29T01:56:28;14.80;99.90
57829;DHT22;43657;52.698;6.314;2022-07-29T01:58:57;14.70;99.90
57829;DHT22;43657;52.698;6.314;2022-07-29T02:01:24;14.70;99.90
57829;DHT22;43657;52.698;6.314;2022-07-29T02:03:50;14.80;99.90
57829;DHT22;43657;52.698;6.314;2022-07-29T02:06:19;14.80;99.90
57829;DHT22;43657;52.698;6.314;2022-07-29T02:08:47;14.70;99.90
57829;DHT22;43657;52.698;6.314;2022-07-29T02:11:14;14.80;99.90
57829;DHT22;43657;52.698;6.314;2022-07-29T02:13:41;14.70;99.90
57829;DHT22;43657;52.698;6.314;2022-07-29T02:16:08;14.70;99.90
57829;DHT22;43657;52.698;6.314;2022-07-29T02:18:36;14.70;99.90
57829;DHT22;43657;52.698;6.314;2022-07-29T02:21:03;14.70;99.90
57829;DHT22;43657;52.698;6.314;2022-07-29T02:23:30;14.70;99.90
57829;DHT22;43657;52.698;6.314;2022-07-29T02:25:58;14.60;99.90
57829;DHT22;43657;52.698;6.314;2022-07-29T02:28:27;14.70;99.90
57829;DHT22;43657;52.698;6.314;2022-07-29T02:30:55;14.70;99.90
57829;DHT22;43657;52.698;6.314;2022-07-29T02:33:23;14.70;99.90
57829;DHT22;43657;52.698;6.314;2022-07-29T02:35:50;14.70;99.90
57829;DHT22;43657;52.698;6.314;2022-07-29T02:38:16;14.60;99.90
57829;DHT22;43657;52.698;6.314;2022-07-29T02:41:17;14.60;99.90
57829;DHT22;43657;52.698;6.314;2022-07-29T02:43:47;14.50;99.90
57829;DHT22;43657;52.698;6.314;2022-07-29T02:46:17;14.60;99.90
57829;DHT22;43657;52.698;6.314;2022-07-29T02:48:51;14.50;99.90
57829;DHT22;43657;52.698;6.314;2022-07-29T02:51:27;14.60;99.90
57829;DHT22;43657;52.698;6.314;2022-07-29T02:53:56;14.50;99.90
57829;DHT22;43657;52.698;6.314;2022-07-29T02:56:28;14.60;99.90
57829;DHT22;43657;52.698;6.314;2022-07-29T02:59:03;14.60;99.90
57829;DHT22;43657;52.698;6.314;2022-07-29T03:01:31;14.50;99.90
57829;DHT22;43657;52.698;6.314;2022-07-29T03:04:01;14.50;99.90
57829;DHT22;43657;52.698;6.314;2022-07-29T03:06:28;14.50;99.90
57829;DHT22;43657;52.698;6.314;2022-07-29T03:08:55;14.40;99.90
57829;DHT22;43657;52.698;6.314;2022-07-29T03:11:22;14.40;99.90
57829;DHT22;43657;52.698;6.314;2022-07-29T03:13:48;14.40;99.90
57829;DHT22;43657;52.698;6.314;2022-07-29T03:16:15;14.40;99.90
57829;DHT22;43657;52.698;6.314;2022-07-29T03:18:41;14.40;99.90
57829;DHT22;43657;52.698;6.314;2022-07-29T03:21:08;14.30;99.90
57829;DHT22;43657;52.698;6.314;2022-07-29T03:23:33;14.30;99.90
57829;DHT22;43657;52.698;6.314;2022-07-29T03:25:59;14.30;99.90
57829;DHT22;43657;52.698;6.314;2022-07-29T03:28:24;14.20;99.90
57829;DHT22;43657;52.698;6.314;2022-07-29T03:30:52;14.20;99.90
57829;DHT22;43657;52.698;6.314;2022-07-29T03:33:18;14.20;99.90
57829;DHT22;43657;52.698;6.314;2022-07-29T03:35:44;14.20;99.90
57829;DHT22;43657;52.698;6.314;2022-07-29T03:38:09;14.20;99.90
57829;DHT22;43657;52.698;6.314;2022-07-29T03:40:42;14.10;99.90
57829;DHT22;43657;52.698;6.314;2022-07-29T03:43:10;14.10;99.90
57829;DHT22;43657;52.698;6.314;2022-07-29T03:45:37;14.00;99.90
57829;DHT22;43657;52.698;6.314;2022-07-29T03:48:09;14.10;99.90
57829;DHT22;43657;52.698;6.314;2022-07-29T03:50:36;14.00;99.90
57829;DHT22;43657;52.698;6.314;2022-07-29T03:53:02;14.00;99.90
57829;DHT22;43657;52.698;6.314;2022-07-29T03:55:30;14.00;99.90
57829;DHT22;43657;52.698;6.314;2022-07-29T03:57:57;14.10;99.90
57829;DHT22;43657;52.698;6.314;2022-07-29T04:00:24;14.00;99.90
57829;DHT22;43657;52.698;6.314;2022-07-29T04:02:50;13.90;99.90
57829;DHT22;43657;52.698;6.314;2022-07-29T04:05:17;13.90;99.90
57829;DHT22;43657;52.698;6.314;2022-07-29T04:07:49;13.90;99.90
57829;DHT22;43657;52.698;6.314;2022-07-29T04:10:15;13.90;99.90
57829;DHT22;43657;52.698;6.314;2022-07-29T04:12:42;13.90;99.90
57829;DHT22;43657;52.698;6.314;2022-07-29T04:15:08;13.90;99.90
57829;DHT22;43657;52.698;6.314;2022-07-29T04:17:34;13.90;99.90
57829;DHT22;43657;52.698;6.314;2022-07-29T04:19:59;13.90;99.90
57829;DHT22;43657;52.698;6.314;2022-07-29T04:22:25;13.90;99.90
57829;DHT22;43657;52.698;6.314;2022-07-29T04:24:51;13.80;99.90
57829;DHT22;43657;52.698;6.314;2022-07-29T04:27:16;13.80;99.90
57829;DHT22;43657;52.698;6.314;2022-07-29T04:29:42;13.70;99.90
57829;DHT22;43657;52.698;6.314;2022-07-29T04:32:07;13.80;99.90
57829;DHT22;43657;52.698;6.314;2022-07-29T04:34:33;13.80;99.90
57829;DHT22;43657;52.698;6.314;2022-07-29T04:36:58;13.80;99.90
57829;DHT22;43657;52.698;6.314;2022-07-29T04:39:24;13.80;99.90
57829;DHT22;43657;52.698;6.314;2022-07-29T04:41:50;13.80;99.90
57829;DHT22;43657;52.698;6.314;2022-07-29T04:44:16;13.80;99.90
57829;DHT22;43657;52.698;6.314;2022-07-29T04:46:41;13.80;99.90
57829;DHT22;43657;52.698;6.314;2022-07-29T04:49:07;13.80;99.90
57829;DHT22;43657;52.698;6.314;2022-07-29T04:51:33;13.80;99.90
57829;DHT22;43657;52.698;6.314;2022-07-29T04:53:59;13.80;99.90
57829;DHT22;43657;52.698;6.314;2022-07-29T04:56:24;13.90;99.90
57829;DHT22;43657;52.698;6.314;2022-07-29T04:58:50;13.90;99.90
57829;DHT22;43657;52.698;6.314;2022-07-29T05:01:16;14.00;99.90
57829;DHT22;43657;52.698;6.314;2022-07-29T05:03:41;14.00;99.90
57829;DHT22;43657;52.698;6.314;2022-07-29T05:06:07;13.90;99.90
57829;DHT22;43657;52.698;6.314;2022-07-29T05:08:33;14.00;99.90
57829;DHT22;43657;52.698;6.314;2022-07-29T05:10:58;14.00;99.90
57829;DHT22;43657;52.698;6.314;2022-07-29T05:13:24;14.00;99.90
57829;DHT22;43657;52.698;6.314;2022-07-29T05:15:49;14.10;99.90
57829;DHT22;43657;52.698;6.314;2022-07-29T05:18:15;14.10;99.90
57829;DHT22;43657;52.698;6.314;2022-07-29T05:20:41;14.10;99.90
57829;DHT22;43657;52.698;6.314;2022-07-29T05:23:06;14.10;99.90
57829;DHT22;43657;52.698;6.314;2022-07-29T05:25:32;14.20;99.90
57829;DHT22;43657;52.698;6.314;2022-07-29T05:27:58;14.20;99.90
57829;DHT22;43657;52.698;6.314;2022-07-29T05:30:24;14.30;99.90
57829;DHT22;43657;52.698;6.314;2022-07-29T05:32:50;14.30;99.90
57829;DHT22;43657;52.698;6.314;2022-07-29T05:35:16;14.40;99.90
57829;DHT22;43657;52.698;6.314;2022-07-29T05:37:42;14.40;99.90
57829;DHT22;43657;52.698;6.314;2022-07-29T05:40:08;14.40;99.90
57829;DHT22;43657;52.698;6.314;2022-07-29T05:42:34;14.40;99.90
57829;DHT22;43657;52.698;6.314;2022-07-29T05:45:00;14.50;99.90
57829;DHT22;43657;52.698;6.314;2022-07-29T05:47:26;14.60;99.90
57829;DHT22;43657;52.698;6.314;2022-07-29T05:49:52;14.60;99.90
57829;DHT22;43657;52.698;6.314;2022-07-29T05:52:18;14.60;99.90
57829;DHT22;43657;52.698;6.314;2022-07-29T05:54:44;14.70;99.90
57829;DHT22;43657;52.698;6.314;2022-07-29T05:57:20;14.70;99.90
57829;DHT22;43657;52.698;6.314;2022-07-29T05:59:46;14.70;99.90
57829;DHT22;43657;52.698;6.314;2022-07-29T06:02:12;14.80;99.90
57829;DHT22;43657;52.698;6.314;2022-07-29T06:04:38;14.80;99.90
57829;DHT22;43657;52.698;6.314;2022-07-29T06:07:04;14.80;99.90
57829;DHT22;43657;52.698;6.314;2022-07-29T06:09:30;14.90;99.90
57829;DHT22;43657;52.698;6.314;2022-07-29T06:11:55;14.90;99.90
57829;DHT22;43657;52.698;6.314;2022-07-29T06:14:21;14.90;99.90
57829;DHT22;43657;52.698;6.314;2022-07-29T06:16:47;14.90;99.90
57829;DHT22;43657;52.698;6.314;2022-07-29T06:19:12;15.00;99.90
57829;DHT22;43657;52.698;6.314;2022-07-29T06:21:42;15.00;99.90
57829;DHT22;43657;52.698;6.314;2022-07-29T06:24:10;15.00;99.90
57829;DHT22;43657;52.698;6.314;2022-07-29T06:26:35;15.00;99.90
57829;DHT22;43657;52.698;6.314;2022-07-29T06:29:01;15.00;99.90
57829;DHT22;43657;52.698;6.314;2022-07-29T06:31:26;15.00;99.90
57829;DHT22;43657;52.698;6.314;2022-07-29T06:33:52;14.90;99.90
57829;DHT22;43657;52.698;6.314;2022-07-29T06:36:18;15.00;99.90
57829;DHT22;43657;52.698;6.314;2022-07-29T06:38:44;15.00;99.90
57829;DHT22;43657;52.698;6.314;2022-07-29T06:41:09;14.90;99.90
57829;DHT22;43657;52.698;6.314;2022-07-29T06:43:41;15.00;99.90
57829;DHT22;43657;52.698;6.314;2022-07-29T06:46:09;14.90;99.90
57829;DHT22;43657;52.698;6.314;2022-07-29T06:48:35;14.90;99.90
57829;DHT22;43657;52.698;6.314;2022-07-29T06:51:02;14.90;99.90
57829;DHT22;43657;52.698;6.314;2022-07-29T06:53:28;15.00;99.90
57829;DHT22;43657;52.698;6.314;2022-07-29T06:55:54;15.00;99.90
57829;DHT22;43657;52.698;6.314;2022-07-29T06:58:19;15.10;99.90
57829;DHT22;43657;52.698;6.314;2022-07-29T07:00:47;15.20;99.90
57829;DHT22;43657;52.698;6.314;2022-07-29T07:03:13;15.30;99.90
57829;DHT22;43657;52.698;6.314;2022-07-29T07:05:39;15.40;99.90
57829;DHT22;43657;52.698;6.314;2022-07-29T07:08:04;15.50;99.90
57829;DHT22;43657;52.698;6.314;2022-07-29T07:10:30;15.60;99.90
57829;DHT22;43657;52.698;6.314;2022-07-29T07:12:56;15.60;99.90
57829;DHT22;43657;52.698;6.314;2022-07-29T07:15:21;15.60;99.90
57829;DHT22;43657;52.698;6.314;2022-07-29T07:17:48;15.60;99.90
57829;DHT22;43657;52.698;6.314;2022-07-29T07:20:15;15.70;99.90
57829;DHT22;43657;52.698;6.314;2022-07-29T07:22:41;15.70;99.90
57829;DHT22;43657;52.698;6.314;2022-07-29T07:25:07;15.70;99.90
57829;DHT22;43657;52.698;6.314;2022-07-29T07:27:32;15.70;99.90
57829;DHT22;43657;52.698;6.314;2022-07-29T07:29:58;15.80;99.90
57829;DHT22;43657;52.698;6.314;2022-07-29T07:32:24;15.60;99.90
57829;DHT22;43657;52.698;6.314;2022-07-29T07:34:49;15.70;99.90
57829;DHT22;43657;52.698;6.314;2022-07-29T07:37:15;15.80;99.90
57829;DHT22;43657;52.698;6.314;2022-07-29T07:39:41;15.80;99.90
57829;DHT22;43657;52.698;6.314;2022-07-29T07:42:06;15.70;99.90
57829;DHT22;43657;52.698;6.314;2022-07-29T07:44:32;15.70;99.90
57829;DHT22;43657;52.698;6.314;2022-07-29T07:46:58;15.60;99.90
57829;DHT22;43657;52.698;6.314;2022-07-29T07:49:23;15.60;99.90
57829;DHT22;43657;52.698;6.314;2022-07-29T07:51:49;15.60;99.90
57829;DHT22;43657;52.698;6.314;2022-07-29T07:54:15;15.50;99.90
57829;DHT22;43657;52.698;6.314;2022-07-29T07:56:40;15.50;99.90
57829;DHT22;43657;52.698;6.314;2022-07-29T07:59:06;15.40;99.90
57829;DHT22;43657;52.698;6.314;2022-07-29T08:01:32;15.50;99.90
57829;DHT22;43657;52.698;6.314;2022-07-29T08:03:57;15.40;99.90
57829;DHT22;43657;52.698;6.314;2022-07-29T08:06:23;15.50;99.90
57829;DHT22;43657;52.698;6.314;2022-07-29T08:08:50;15.50;99.90
57829;DHT22;43657;52.698;6.314;2022-07-29T08:11:16;15.60;99.90
57829;DHT22;43657;52.698;6.314;2022-07-29T08:13:42;15.80;99.90
57829;DHT22;43657;52.698;6.314;2022-07-29T08:16:08;15.80;99.90
57829;DHT22;43657;52.698;6.314;2022-07-29T08:18:39;16.00;99.90
57829;DHT22;43657;52.698;6.314;2022-07-29T08:21:05;16.00;99.90
57829;DHT22;43657;52.698;6.314;2022-07-29T08:23:31;16.10;99.90
57829;DHT22;43657;52.698;6.314;2022-07-29T08:26:04;16.20;99.90
57829;DHT22;43657;52.698;6.314;2022-07-29T08:28:30;16.30;99.90
57829;DHT22;43657;52.698;6.314;2022-07-29T08:30:56;16.40;99.90
57829;DHT22;43657;52.698;6.314;2022-07-29T08:33:21;16.50;99.90
57829;DHT22;43657;52.698;6.314;2022-07-29T08:35:47;16.60;99.90
57829;DHT22;43657;52.698;6.314;2022-07-29T08:38:13;16.70;99.90
57829;DHT22;43657;52.698;6.314;2022-07-29T08:40:39;16.80;99.90
57829;DHT22;43657;52.698;6.314;2022-07-29T08:43:07;16.90;99.90
57829;DHT22;43657;52.698;6.314;2022-07-29T08:45:52;17.10;99.90
57829;DHT22;43657;52.698;6.314;2022-07-29T08:48:20;17.10;99.90
57829;DHT22;43657;52.698;6.314;2022-07-29T08:50:48;17.20;99.90
57829;DHT22;43657;52.698;6.314;2022-07-29T08:53:16;17.20;99.90
57829;DHT22;43657;52.698;6.314;2022-07-29T08:55:45;17.20;99.90
57829;DHT22;43657;52.698;6.314;2022-07-29T08:58:11;17.30;99.90
57829;DHT22;43657;52.698;6.314;2022-07-29T09:01:02;17.30;99.90
57829;DHT22;43657;52.698;6.314;2022-07-29T09:03:31;17.40;99.90
57829;DHT22;43657;52.698;6.314;2022-07-29T09:05:58;17.60;99.90
57829;DHT22;43657;52.698;6.314;2022-07-29T09:08:25;17.60;99.90
57829;DHT22;43657;52.698;6.314;2022-07-29T09:10:51;17.80;99.90
57829;DHT22;43657;52.698;6.314;2022-07-29T09:13:17;17.90;99.90
57829;DHT22;43657;52.698;6.314;2022-07-29T09:15:43;17.90;99.90
57829;DHT22;43657;52.698;6.314;2022-07-29T09:18:09;17.90;99.90
57829;DHT22;43657;52.698;6.314;2022-07-29T09:20:35;17.90;99.90
57829;DHT22;43657;52.698;6.314;2022-07-29T09:23:19;18.00;99.90
57829;DHT22;43657;52.698;6.314;2022-07-29T09:25:45;18.20;99.90
57829;DHT22;43657;52.698;6.314;2022-07-29T09:28:13;18.30;99.90
57829;DHT22;43657;52.698;6.314;2022-07-29T09:30:53;18.40;99.90
57829;DHT22;43657;52.698;6.314;2022-07-29T09:33:21;18.40;99.90
57829;DHT22;43657;52.698;6.314;2022-07-29T09:35:58;18.50;99.90
57829;DHT22;43657;52.698;6.314;2022-07-29T09:38:24;18.70;99.90
57829;DHT22;43657;52.698;6.314;2022-07-29T09:40:57;18.80;99.90
57829;DHT22;43657;52.698;6.314;2022-07-29T09:43:23;18.90;99.90
57829;DHT22;43657;52.698;6.314;2022-07-29T09:45:49;18.90;99.90
57829;DHT22;43657;52.698;6.314;2022-07-29T09:48:20;19.00;99.90
57829;DHT22;43657;52.698;6.314;2022-07-29T09:50:46;19.10;99.90
57829;DHT22;43657;52.698;6.314;2022-07-29T09:55:56;19.20;99.80
57829;DHT22;43657;52.698;6.314;2022-07-29T09:58:22;19.30;99.90
57829;DHT22;43657;52.698;6.314;2022-07-29T10:00:49;19.40;99.90
57829;DHT22;43657;52.698;6.314;2022-07-29T10:03:16;19.60;99.80
57829;DHT22;43657;52.698;6.314;2022-07-29T10:05:43;19.70;99.00
57829;DHT22;43657;52.698;6.314;2022-07-29T10:08:09;20.00;99.20
57829;DHT22;43657;52.698;6.314;2022-07-29T10:10:37;20.30;99.10
57829;DHT22;43657;52.698;6.314;2022-07-29T10:13:12;20.70;98.20
57829;DHT22;43657;52.698;6.314;2022-07-29T10:15:43;21.00;97.00
57829;DHT22;43657;52.698;6.314;2022-07-29T10:18:11;21.00;95.90
57829;DHT22;43657;52.698;6.314;2022-07-29T10:20:37;20.90;94.50
57829;DHT22;43657;52.698;6.314;2022-07-29T10:23:04;20.90;93.80
57829;DHT22;43657;52.698;6.314;2022-07-29T10:25:31;20.80;93.80
57829;DHT22;43657;52.698;6.314;2022-07-29T10:27:57;20.80;93.90
57829;DHT22;43657;52.698;6.314;2022-07-29T10:30:24;20.90;93.50
57829;DHT22;43657;52.698;6.314;2022-07-29T10:36:10;21.20;92.40
57829;DHT22;43657;52.698;6.314;2022-07-29T10:44:33;21.00;90.80
57829;DHT22;43657;52.698;6.314;2022-07-29T10:46:59;21.00;92.00
57829;DHT22;43657;52.698;6.314;2022-07-29T10:49:26;21.10;91.50
57829;DHT22;43657;52.698;6.314;2022-07-29T10:57:27;20.90;89.10
57829;DHT22;43657;52.698;6.314;2022-07-29T11:05:06;20.70;88.40
57829;DHT22;43657;52.698;6.314;2022-07-29T11:07:34;20.70;88.00
57829;DHT22;43657;52.698;6.314;2022-07-29T11:15:05;21.10;89.80
57829;DHT22;43657;52.698;6.314;2022-07-29T11:20:39;22.20;86.60
57829;DHT22;43657;52.698;6.314;2022-07-29T11:23:29;22.50;86.80
57829;DHT22;43657;52.698;6.314;2022-07-29T11:39:35;23.90;80.20
57829;DHT22;43657;52.698;6.314;2022-07-29T11:45:02;24.10;78.20
57829;DHT22;43657;52.698;6.314;2022-07-29T11:47:54;24.60;79.90
57829;DHT22;43657;52.698;6.314;2022-07-29T11:50:36;25.30;77.80
57829;DHT22;43657;52.698;6.314;2022-07-29T11:53:03;25.80;72.90
57829;DHT22;43657;52.698;6.314;2022-07-29T11:55:28;26.00;68.90
57829;DHT22;43657;52.698;6.314;2022-07-29T11:57:58;26.10;73.60
57829;DHT22;43657;52.698;6.314;2022-07-29T12:00:31;26.30;72.30
57829;DHT22;43657;52.698;6.314;2022-07-29T12:02:58;26.70;70.50
57829;DHT22;43657;52.698;6.314;2022-07-29T12:05:32;26.80;68.10
57829;DHT22;43657;52.698;6.314;2022-07-29T12:08:06;26.80;69.00
57829;DHT22;43657;52.698;6.314;2022-07-29T12:10:33;26.70;69.30
57829;DHT22;43657;52.698;6.314;2022-07-29T12:12:59;26.70;69.20
57829;DHT22;43657;52.698;6.314;2022-07-29T12:15:24;27.00;67.70
57829;DHT22;43657;52.698;6.314;2022-07-29T12:17:51;27.00;66.70
57829;DHT22;43657;52.698;6.314;2022-07-29T12:20:29;26.80;66.80
57829;DHT22;43657;52.698;6.314;2022-07-29T12:22:56;26.70;65.70
57829;DHT22;43657;52.698;6.314;2022-07-29T12:25:23;26.60;65.30
57829;DHT22;43657;52.698;6.314;2022-07-29T12:28:04;26.30;64.80
57829;DHT22;43657;52.698;6.314;2022-07-29T12:30:37;25.70;65.40
57829;DHT22;43657;52.698;6.314;2022-07-29T12:33:31;25.40;65.40
57829;DHT22;43657;52.698;6.314;2022-07-29T12:36:01;24.90;66.10
57829;DHT22;43657;52.698;6.314;2022-07-29T12:38:27;24.70;68.00
57829;DHT22;43657;52.698;6.314;2022-07-29T12:40:53;24.90;69.10
57829;DHT22;43657;52.698;6.314;2022-07-29T12:43:21;25.40;68.20
57829;DHT22;43657;52.698;6.314;2022-07-29T12:45:49;25.60;67.40
57829;DHT22;43657;52.698;6.314;2022-07-29T12:48:16;25.60;68.00
57829;DHT22;43657;52.698;6.314;2022-07-29T12:50:56;26.00;68.30
57829;DHT22;43657;52.698;6.314;2022-07-29T12:53:23;26.70;67.80
57829;DHT22;43657;52.698;6.314;2022-07-29T12:55:51;27.10;66.90
57829;DHT22;43657;52.698;6.314;2022-07-29T12:58:34;27.20;64.30
57829;DHT22;43657;52.698;6.314;2022-07-29T13:01:14;27.10;61.40
57829;DHT22;43657;52.698;6.314;2022-07-29T13:03:51;26.80;63.20
57829;DHT22;43657;52.698;6.314;2022-07-29T13:08:59;26.70;62.20
57829;DHT22;43657;52.698;6.314;2022-07-29T13:11:34;26.70;64.20
57829;DHT22;43657;52.698;6.314;2022-07-29T13:14:00;27.20;63.90
57829;DHT22;43657;52.698;6.314;2022-07-29T13:16:25;27.60;62.50
57829;DHT22;43657;52.698;6.314;2022-07-29T13:19:07;27.70;61.60
57829;DHT22;43657;52.698;6.314;2022-07-29T13:21:33;27.80;62.10
57829;DHT22;43657;52.698;6.314;2022-07-29T13:23:59;27.90;62.90
57829;DHT22;43657;52.698;6.314;2022-07-29T13:26:24;28.00;62.00
57829;DHT22;43657;52.698;6.314;2022-07-29T13:28:50;27.70;60.70
57829;DHT22;43657;52.698;6.314;2022-07-29T13:31:16;27.30;61.00
57829;DHT22;43657;52.698;6.314;2022-07-29T13:33:41;27.10;61.40
57829;DHT22;43657;52.698;6.314;2022-07-29T13:36:07;27.10;61.80
57829;DHT22;43657;52.698;6.314;2022-07-29T13:38:32;27.30;61.60
57829;DHT22;43657;52.698;6.314;2022-07-29T13:40:59;27.40;61.90
57829;DHT22;43657;52.698;6.314;2022-07-29T13:43:25;27.60;61.40
57829;DHT22;43657;52.698;6.314;2022-07-29T13:45:51;27.60;60.80
57829;DHT22;43657;52.698;6.314;2022-07-29T13:48:17;27.70;61.20
57829;DHT22;43657;52.698;6.314;2022-07-29T13:50:43;27.80;60.00
57829;DHT22;43657;52.698;6.314;2022-07-29T13:53:08;27.70;60.10
57829;DHT22;43657;52.698;6.314;2022-07-29T13:55:34;27.60;60.70
57829;DHT22;43657;52.698;6.314;2022-07-29T13:57:59;27.60;60.60
57829;DHT22;43657;52.698;6.314;2022-07-29T14:00:25;27.80;61.30
57829;DHT22;43657;52.698;6.314;2022-07-29T14:02:51;28.10;60.90
57829;DHT22;43657;52.698;6.314;2022-07-29T14:05:17;28.40;59.90
57829;DHT22;43657;52.698;6.314;2022-07-29T14:07:43;28.50;59.40
57829;DHT22;43657;52.698;6.314;2022-07-29T14:10:09;28.50;57.20
57829;DHT22;43657;52.698;6.314;2022-07-29T14:12:35;28.20;56.40
57829;DHT22;43657;52.698;6.314;2022-07-29T14:15:01;28.00;56.30
57829;DHT22;43657;52.698;6.314;2022-07-29T14:17:26;28.10;57.40
57829;DHT22;43657;52.698;6.314;2022-07-29T14:19:52;28.30;58.10
57829;DHT22;43657;52.698;6.314;2022-07-29T14:22:18;28.50;57.60
57829;DHT22;43657;52.698;6.314;2022-07-29T14:24:44;28.70;57.40
57829;DHT22;43657;52.698;6.314;2022-07-29T14:27:10;28.90;56.50
57829;DHT22;43657;52.698;6.314;2022-07-29T14:29:36;29.00;55.80
57829;DHT22;43657;52.698;6.314;2022-07-29T14:32:01;28.90;55.20
57829;DHT22;43657;52.698;6.314;2022-07-29T14:34:27;28.80;55.10
57829;DHT22;43657;52.698;6.314;2022-07-29T14:36:53;28.50;55.60
57829;DHT22;43657;52.698;6.314;2022-07-29T14:39:21;28.30;55.10
57829;DHT22;43657;52.698;6.314;2022-07-29T14:41:48;28.00;55.20
57829;DHT22;43657;52.698;6.314;2022-07-29T14:44:14;27.80;55.80
57829;DHT22;43657;52.698;6.314;2022-07-29T14:46:40;27.60;56.50
57829;DHT22;43657;52.698;6.314;2022-07-29T14:49:05;27.40;56.00
57829;DHT22;43657;52.698;6.314;2022-07-29T14:51:32;27.10;55.50
57829;DHT22;43657;52.698;6.314;2022-07-29T14:53:57;26.90;56.10
57829;DHT22;43657;52.698;6.314;2022-07-29T14:56:23;26.80;57.10
57829;DHT22;43657;52.698;6.314;2022-07-29T14:58:49;26.80;57.00
57829;DHT22;43657;52.698;6.314;2022-07-29T15:01:14;27.10;56.90
57829;DHT22;43657;52.698;6.314;2022-07-29T15:03:40;27.20;55.80
57829;DHT22;43657;52.698;6.314;2022-07-29T15:06:06;27.30;55.60
57829;DHT22;43657;52.698;6.314;2022-07-29T15:08:31;27.30;56.10
57829;DHT22;43657;52.698;6.314;2022-07-29T15:10:57;27.30;56.40
57829;DHT22;43657;52.698;6.314;2022-07-29T15:13:25;27.20;55.50
57829;DHT22;43657;52.698;6.314;2022-07-29T15:15:50;27.00;55.50
57829;DHT22;43657;52.698;6.314;2022-07-29T15:18:17;26.80;55.90
57829;DHT22;43657;52.698;6.314;2022-07-29T15:20:42;26.60;56.20
57829;DHT22;43657;52.698;6.314;2022-07-29T15:23:10;26.30;55.90
57829;DHT22;43657;52.698;6.314;2022-07-29T15:25:38;26.10;56.10
57829;DHT22;43657;52.698;6.314;2022-07-29T15:28:03;25.90;55.40
57829;DHT22;43657;52.698;6.314;2022-07-29T15:30:33;25.60;55.70
57829;DHT22;43657;52.698;6.314;2022-07-29T15:32:59;25.40;56.60
57829;DHT22;43657;52.698;6.314;2022-07-29T15:35:25;25.20;57.30
57829;DHT22;43657;52.698;6.314;2022-07-29T15:37:50;25.10;56.70
57829;DHT22;43657;52.698;6.314;2022-07-29T15:40:16;24.90;57.10
57829;DHT22;43657;52.698;6.314;2022-07-29T15:42:42;24.80;57.70
57829;DHT22;43657;52.698;6.314;2022-07-29T15:45:08;24.70;58.10
57829;DHT22;43657;52.698;6.314;2022-07-29T15:47:35;24.60;58.60
57829;DHT22;43657;52.698;6.314;2022-07-29T15:50:00;24.50;58.50
57829;DHT22;43657;52.698;6.314;2022-07-29T15:52:26;24.40;59.30
57829;DHT22;43657;52.698;6.314;2022-07-29T15:54:56;24.30;59.70
57829;DHT22;43657;52.698;6.314;2022-07-29T15:57:22;24.20;60.50
57829;DHT22;43657;52.698;6.314;2022-07-29T15:59:48;24.10;60.30
57829;DHT22;43657;52.698;6.314;2022-07-29T16:02:14;24.10;60.80
57829;DHT22;43657;52.698;6.314;2022-07-29T16:04:40;24.00;61.70
57829;DHT22;43657;52.698;6.314;2022-07-29T16:07:06;24.00;61.90
57829;DHT22;43657;52.698;6.314;2022-07-29T16:09:32;23.90;63.00
57829;DHT22;43657;52.698;6.314;2022-07-29T16:11:57;23.90;62.90
57829;DHT22;43657;52.698;6.314;2022-07-29T16:14:23;23.80;63.20
57829;DHT22;43657;52.698;6.314;2022-07-29T16:16:49;23.70;63.50
57829;DHT22;43657;52.698;6.314;2022-07-29T16:19:14;23.60;63.80
57829;DHT22;43657;52.698;6.314;2022-07-29T16:21:40;23.60;64.20
57829;DHT22;43657;52.698;6.314;2022-07-29T16:24:06;23.50;64.00
57829;DHT22;43657;52.698;6.314;2022-07-29T16:26:33;23.50;63.70
57829;DHT22;43657;52.698;6.314;2022-07-29T16:28:58;23.50;63.20
57829;DHT22;43657;52.698;6.314;2022-07-29T16:31:25;23.50;63.40
57829;DHT22;43657;52.698;6.314;2022-07-29T16:33:51;23.50;63.30